sensor_id;sensor_type;location;lat;lon;timestamp;P1;durP1;ratioP1;P2;durP2;ratioP2
70169;SDS011;57543;45.442;9.212;2024-03-23T00:55:19;52.13;;;25.05;;
70169;SDS011;57543;45.442;9.212;2024-03-23T00:58:23;51.63;;;24.75;;
70169;SDS011;57543;45.442;9.212;2024-03-23T01:01:26;55.10;;;25.20;;
70169;SDS011;57543;45.442;9.212;2024-03-23T01:04:30;51.53;;;26.63;;
70169;SDS011;57543;45.442;9.212;2024-03-23T01:07:33;49.00;;;25.10;;
70169;SDS011;57543;45.442;9.212;2024-03-23T01:10:37;47.30;;;24.08;;
70169;SDS011;57543;45.442;9.212;2024-03-23T01:13:40;51.42;;;24.55;;
70169;SDS011;57543;45.442;9.212;2024-03-23T01:16:43;50.70;;;25.70;;
70169;SDS011;57543;45.442;9.212;2024-03-23T01:19:47;52.90;;;26.40;;
70169;SDS011;57543;45.442;9.212;2024-03-23T01:22:51;56.33;;;27.42;;
70169;SDS011;57543;45.442;9.212;2024-03-23T01:25:54;50.58;;;25.08;;
70169;SDS011;57543;45.442;9.212;2024-03-23T01:28:57;53.67;;;26.08;;
70169;SDS011;57543;45.442;9.212;2024-03-23T01:32:01;53.30;;;26.30;;
70169;SDS011;57543;45.442;9.212;2024-03-23T01:35:06;49.17;;;25.58;;
70169;SDS011;57543;45.442;9.212;2024-03-23T01:38:09;51.15;;;25.23;;
70169;SDS011;57543;45.442;9.212;2024-03-23T01:41:13;49.90;;;25.40;;
70169;SDS011;57543;45.442;9.212;2024-03-23T01:44:17;47.90;;;24.45;;
70169;SDS011;57543;45.442;9.212;2024-03-23T01:47:21;50.53;;;24.80;;
70169;SDS011;57543;45.442;9.212;2024-03-23T01:50:24;51.00;;;24.75;;
70169;SDS011;57543;45.442;9.212;2024-03-23T01:53:29;52.38;;;24.70;;
70169;SDS011;57543;45.442;9.212;2024-03-23T01:56:33;51.58;;;24.58;;
70169;SDS011;57543;45.442;9.212;2024-03-23T01:59:40;49.63;;;24.55;;
70169;SDS011;57543;45.442;9.212;2024-03-23T02:02:45;49.20;;;24.60;;
70169;SDS011;57543;45.442;9.212;2024-03-23T02:05:49;51.40;;;23.88;;
70169;SDS011;57543;45.442;9.212;2024-03-23T02:08:53;49.53;;;25.17;;
70169;SDS011;57543;45.442;9.212;2024-03-23T02:11:57;50.80;;;25.20;;
70169;SDS011;57543;45.442;9.212;2024-03-23T02:15:01;53.28;;;25.30;;
70169;SDS011;57543;45.442;9.212;2024-03-23T02:18:07;49.50;;;24.90;;
70169;SDS011;57543;45.442;9.212;2024-03-23T02:21:11;51.08;;;24.88;;
70169;SDS011;57543;45.442;9.212;2024-03-23T02:24:14;48.58;;;24.35;;
70169;SDS011;57543;45.442;9.212;2024-03-23T02:27:18;53.30;;;25.00;;
70169;SDS011;57543;45.442;9.212;2024-03-23T02:30:22;48.92;;;24.75;;
70169;SDS011;57543;45.442;9.212;2024-03-23T02:33:25;52.80;;;25.73;;
70169;SDS011;57543;45.442;9.212;2024-03-23T02:36:29;53.33;;;25.40;;
70169;SDS011;57543;45.442;9.212;2024-03-23T02:39:34;52.35;;;25.17;;
70169;SDS011;57543;45.442;9.212;2024-03-23T02:42:38;51.65;;;25.52;;
70169;SDS011;57543;45.442;9.212;2024-03-23T02:45:42;51.03;;;24.88;;
70169;SDS011;57543;45.442;9.212;2024-03-23T02:48:48;52.93;;;24.77;;
70169;SDS011;57543;45.442;9.212;2024-03-23T02:51:51;50.17;;;24.33;;
70169;SDS011;57543;45.442;9.212;2024-03-23T02:54:55;50.70;;;25.05;;
70169;SDS011;57543;45.442;9.212;2024-03-23T02:57:59;53.50;;;25.17;;
70169;SDS011;57543;45.442;9.212;2024-03-23T03:01:05;54.08;;;25.17;;
70169;SDS011;57543;45.442;9.212;2024-03-23T03:04:09;50.77;;;25.83;;
70169;SDS011;57543;45.442;9.212;2024-03-23T03:07:12;52.50;;;26.00;;
70169;SDS011;57543;45.442;9.212;2024-03-23T03:10:16;55.22;;;26.67;;
70169;SDS011;57543;45.442;9.212;2024-03-23T03:13:19;51.70;;;24.77;;
70169;SDS011;57543;45.442;9.212;2024-03-23T03:16:22;51.35;;;24.80;;
70169;SDS011;57543;45.442;9.212;2024-03-23T03:19:26;51.73;;;24.97;;
70169;SDS011;57543;45.442;9.212;2024-03-23T03:22:30;54.33;;;25.77;;
70169;SDS011;57543;45.442;9.212;2024-03-23T03:25:34;54.80;;;25.60;;
70169;SDS011;57543;45.442;9.212;2024-03-23T03:28:38;55.75;;;27.05;;
70169;SDS011;57543;45.442;9.212;2024-03-23T03:31:42;53.80;;;25.17;;
70169;SDS011;57543;45.442;9.212;2024-03-23T03:34:46;60.03;;;27.87;;
70169;SDS011;57543;45.442;9.212;2024-03-23T03:37:49;50.55;;;26.33;;
70169;SDS011;57543;45.442;9.212;2024-03-23T03:40:53;55.17;;;27.33;;
70169;SDS011;57543;45.442;9.212;2024-03-23T03:43:56;56.50;;;26.00;;
70169;SDS011;57543;45.442;9.212;2024-03-23T03:47:04;53.53;;;25.90;;
70169;SDS011;57543;45.442;9.212;2024-03-23T03:50:09;53.13;;;25.70;;
70169;SDS011;57543;45.442;9.212;2024-03-23T03:53:12;48.90;;;25.73;;
70169;SDS011;57543;45.442;9.212;2024-03-23T03:56:16;52.33;;;26.35;;
70169;SDS011;57543;45.442;9.212;2024-03-23T03:59:20;51.95;;;25.55;;
70169;SDS011;57543;45.442;9.212;2024-03-23T04:02:24;52.97;;;25.73;;
70169;SDS011;57543;45.442;9.212;2024-03-23T04:05:27;48.90;;;23.97;;
70169;SDS011;57543;45.442;9.212;2024-03-23T04:08:31;48.45;;;24.15;;
70169;SDS011;57543;45.442;9.212;2024-03-23T04:11:35;50.15;;;25.08;;
70169;SDS011;57543;45.442;9.212;2024-03-23T04:14:39;49.25;;;23.95;;
70169;SDS011;57543;45.442;9.212;2024-03-23T04:17:42;56.15;;;25.88;;
70169;SDS011;57543;45.442;9.212;2024-03-23T04:20:46;48.27;;;23.93;;
70169;SDS011;57543;45.442;9.212;2024-03-23T04:23:49;49.97;;;25.30;;
70169;SDS011;57543;45.442;9.212;2024-03-23T04:26:53;49.90;;;26.10;;
70169;SDS011;57543;45.442;9.212;2024-03-23T04:29:57;49.60;;;25.50;;
70169;SDS011;57543;45.442;9.212;2024-03-23T04:33:01;49.22;;;24.80;;
70169;SDS011;57543;45.442;9.212;2024-03-23T04:36:04;48.13;;;24.23;;
70169;SDS011;57543;45.442;9.212;2024-03-23T04:39:08;47.53;;;23.63;;
70169;SDS011;57543;45.442;9.212;2024-03-23T04:42:11;51.53;;;24.65;;
70169;SDS011;57543;45.442;9.212;2024-03-23T04:45:16;48.15;;;23.55;;
70169;SDS011;57543;45.442;9.212;2024-03-23T04:48:22;49.95;;;24.48;;
70169;SDS011;57543;45.442;9.212;2024-03-23T04:51:26;49.03;;;23.37;;
70169;SDS011;57543;45.442;9.212;2024-03-23T04:54:30;53.30;;;25.17;;
70169;SDS011;57543;45.442;9.212;2024-03-23T04:57:35;52.47;;;25.17;;
70169;SDS011;57543;45.442;9.212;2024-03-23T05:00:38;48.75;;;24.83;;
70169;SDS011;57543;45.442;9.212;2024-03-23T05:03:42;53.33;;;25.33;;
70169;SDS011;57543;45.442;9.212;2024-03-23T05:06:46;50.07;;;24.30;;
70169;SDS011;57543;45.442;9.212;2024-03-23T05:09:49;51.10;;;24.35;;
70169;SDS011;57543;45.442;9.212;2024-03-23T05:12:53;51.67;;;24.83;;
70169;SDS011;57543;45.442;9.212;2024-03-23T05:15:57;49.42;;;24.25;;
70169;SDS011;57543;45.442;9.212;2024-03-23T05:19:00;49.28;;;24.27;;
70169;SDS011;57543;45.442;9.212;2024-03-23T05:22:04;48.23;;;24.67;;
70169;SDS011;57543;45.442;9.212;2024-03-23T05:25:08;52.40;;;25.90;;
70169;SDS011;57543;45.442;9.212;2024-03-23T05:28:13;49.10;;;24.35;;
70169;SDS011;57543;45.442;9.212;2024-03-23T05:31:23;46.55;;;23.65;;
70169;SDS011;57543;45.442;9.212;2024-03-23T05:34:30;47.35;;;23.80;;
70169;SDS011;57543;45.442;9.212;2024-03-23T05:37:34;50.13;;;23.87;;
70169;SDS011;57543;45.442;9.212;2024-03-23T05:40:38;48.20;;;24.40;;
70169;SDS011;57543;45.442;9.212;2024-03-23T05:43:43;46.63;;;24.45;;
70169;SDS011;57543;45.442;9.212;2024-03-23T05:46:47;49.38;;;24.17;;
70169;SDS011;57543;45.442;9.212;2024-03-23T05:49:52;45.83;;;23.75;;
70169;SDS011;57543;45.442;9.212;2024-03-23T05:52:56;50.50;;;24.90;;
70169;SDS011;57543;45.442;9.212;2024-03-23T05:56:00;52.40;;;25.75;;
70169;SDS011;57543;45.442;9.212;2024-03-23T05:59:08;47.53;;;23.73;;
70169;SDS011;57543;45.442;9.212;2024-03-23T06:02:13;56.08;;;25.15;;
70169;SDS011;57543;45.442;9.212;2024-03-23T06:05:17;49.72;;;23.77;;
70169;SDS011;57543;45.442;9.212;2024-03-23T06:08:20;49.00;;;24.37;;
70169;SDS011;57543;45.442;9.212;2024-03-23T06:11:24;52.33;;;24.95;;
70169;SDS011;57543;45.442;9.212;2024-03-23T06:14:30;50.13;;;23.60;;
70169;SDS011;57543;45.442;9.212;2024-03-23T06:17:33;49.33;;;24.25;;
70169;SDS011;57543;45.442;9.212;2024-03-23T06:20:37;51.08;;;24.42;;
70169;SDS011;57543;45.442;9.212;2024-03-23T06:23:41;50.70;;;24.37;;
70169;SDS011;57543;45.442;9.212;2024-03-23T06:26:45;50.90;;;24.95;;
70169;SDS011;57543;45.442;9.212;2024-03-23T06:29:48;51.45;;;25.17;;
70169;SDS011;57543;45.442;9.212;2024-03-23T06:32:52;54.00;;;25.20;;
70169;SDS011;57543;45.442;9.212;2024-03-23T06:35:56;55.78;;;24.65;;
70169;SDS011;57543;45.442;9.212;2024-03-23T06:39:01;54.47;;;26.60;;
70169;SDS011;57543;45.442;9.212;2024-03-23T06:42:04;51.80;;;24.73;;
70169;SDS011;57543;45.442;9.212;2024-03-23T06:45:08;47.28;;;23.52;;
70169;SDS011;57543;45.442;9.212;2024-03-23T06:48:12;51.83;;;24.98;;
70169;SDS011;57543;45.442;9.212;2024-03-23T06:51:16;50.90;;;23.90;;
70169;SDS011;57543;45.442;9.212;2024-03-23T06:54:20;52.53;;;23.93;;
70169;SDS011;57543;45.442;9.212;2024-03-23T06:57:23;45.78;;;23.63;;
70169;SDS011;57543;45.442;9.212;2024-03-23T07:00:27;45.83;;;22.63;;
70169;SDS011;57543;45.442;9.212;2024-03-23T07:03:31;45.58;;;22.67;;
70169;SDS011;57543;45.442;9.212;2024-03-23T07:06:42;42.35;;;21.65;;
70169;SDS011;57543;45.442;9.212;2024-03-23T07:09:46;43.47;;;22.00;;
70169;SDS011;57543;45.442;9.212;2024-03-23T07:12:50;42.70;;;20.25;;
70169;SDS011;57543;45.442;9.212;2024-03-23T07:15:54;37.42;;;18.23;;
70169;SDS011;57543;45.442;9.212;2024-03-23T07:19:01;34.83;;;16.73;;
70169;SDS011;57543;45.442;9.212;2024-03-23T07:22:04;34.72;;;16.88;;
70169;SDS011;57543;45.442;9.212;2024-03-23T07:25:08;34.60;;;17.17;;
70169;SDS011;57543;45.442;9.212;2024-03-23T07:28:12;33.03;;;16.42;;
70169;SDS011;57543;45.442;9.212;2024-03-23T07:31:15;31.58;;;16.55;;
70169;SDS011;57543;45.442;9.212;2024-03-23T07:34:19;30.67;;;15.25;;
70169;SDS011;57543;45.442;9.212;2024-03-23T07:37:23;27.30;;;14.60;;
70169;SDS011;57543;45.442;9.212;2024-03-23T07:40:27;30.53;;;14.47;;
70169;SDS011;57543;45.442;9.212;2024-03-23T07:43:30;26.20;;;13.82;;
70169;SDS011;57543;45.442;9.212;2024-03-23T07:46:34;24.70;;;13.18;;
70169;SDS011;57543;45.442;9.212;2024-03-23T07:49:38;25.75;;;13.43;;
70169;SDS011;57543;45.442;9.212;2024-03-23T07:52:43;22.95;;;12.90;;
70169;SDS011;57543;45.442;9.212;2024-03-23T07:56:08;24.13;;;13.53;;
70169;SDS011;57543;45.442;9.212;2024-03-23T07:59:12;23.73;;;12.20;;
70169;SDS011;57543;45.442;9.212;2024-03-23T08:02:15;21.92;;;11.65;;
70169;SDS011;57543;45.442;9.212;2024-03-23T08:05:19;23.45;;;12.40;;
70169;SDS011;57543;45.442;9.212;2024-03-23T08:08:23;23.50;;;13.07;;
70169;SDS011;57543;45.442;9.212;2024-03-23T08:11:27;28.30;;;12.97;;
70169;SDS011;57543;45.442;9.212;2024-03-23T08:14:32;21.98;;;12.02;;
70169;SDS011;57543;45.442;9.212;2024-03-23T08:17:36;20.58;;;11.75;;
70169;SDS011;57543;45.442;9.212;2024-03-23T08:20:40;25.15;;;11.90;;
70169;SDS011;57543;45.442;9.212;2024-03-23T08:23:44;30.90;;;13.00;;
70169;SDS011;57543;45.442;9.212;2024-03-23T08:26:47;22.03;;;12.10;;
70169;SDS011;57543;45.442;9.212;2024-03-23T08:29:51;21.48;;;11.40;;
70169;SDS011;57543;45.442;9.212;2024-03-23T08:32:55;19.50;;;11.40;;
70169;SDS011;57543;45.442;9.212;2024-03-23T08:35:59;21.67;;;10.60;;
70169;SDS011;57543;45.442;9.212;2024-03-23T08:39:04;23.65;;;11.45;;
70169;SDS011;57543;45.442;9.212;2024-03-23T08:42:08;17.33;;;9.67;;
70169;SDS011;57543;45.442;9.212;2024-03-23T08:45:12;19.88;;;10.07;;
70169;SDS011;57543;45.442;9.212;2024-03-23T08:48:15;17.45;;;10.18;;
70169;SDS011;57543;45.442;9.212;2024-03-23T08:51:20;23.15;;;11.48;;
70169;SDS011;57543;45.442;9.212;2024-03-23T08:54:23;24.38;;;10.73;;
70169;SDS011;57543;45.442;9.212;2024-03-23T08:57:27;19.30;;;10.73;;
70169;SDS011;57543;45.442;9.212;2024-03-23T09:00:31;20.50;;;10.88;;
70169;SDS011;57543;45.442;9.212;2024-03-23T09:03:35;20.58;;;10.63;;
70169;SDS011;57543;45.442;9.212;2024-03-23T09:06:39;17.55;;;9.23;;
70169;SDS011;57543;45.442;9.212;2024-03-23T09:09:42;18.65;;;10.40;;
70169;SDS011;57543;45.442;9.212;2024-03-23T09:12:45;19.30;;;9.30;;
70169;SDS011;57543;45.442;9.212;2024-03-23T09:15:50;14.05;;;7.80;;
70169;SDS011;57543;45.442;9.212;2024-03-23T09:18:55;16.38;;;8.48;;
70169;SDS011;57543;45.442;9.212;2024-03-23T09:21:58;16.80;;;8.95;;
70169;SDS011;57543;45.442;9.212;2024-03-23T09:25:02;14.75;;;8.68;;
70169;SDS011;57543;45.442;9.212;2024-03-23T09:28:08;15.30;;;8.30;;
70169;SDS011;57543;45.442;9.212;2024-03-23T09:31:12;15.98;;;8.85;;
70169;SDS011;57543;45.442;9.212;2024-03-23T09:34:18;17.40;;;10.07;;
70169;SDS011;57543;45.442;9.212;2024-03-23T09:37:21;16.73;;;9.02;;
70169;SDS011;57543;45.442;9.212;2024-03-23T09:40:25;17.58;;;9.00;;
70169;SDS011;57543;45.442;9.212;2024-03-23T09:43:29;16.43;;;9.23;;
70169;SDS011;57543;45.442;9.212;2024-03-23T09:46:33;20.25;;;10.32;;
70169;SDS011;57543;45.442;9.212;2024-03-23T09:49:40;20.55;;;10.23;;
70169;SDS011;57543;45.442;9.212;2024-03-23T09:52:45;14.25;;;8.35;;
70169;SDS011;57543;45.442;9.212;2024-03-23T09:55:49;17.60;;;10.23;;
70169;SDS011;57543;45.442;9.212;2024-03-23T09:58:59;17.23;;;9.50;;
70169;SDS011;57543;45.442;9.212;2024-03-23T10:02:04;18.08;;;9.75;;
70169;SDS011;57543;45.442;9.212;2024-03-23T10:05:22;19.92;;;10.85;;
70169;SDS011;57543;45.442;9.212;2024-03-23T10:08:27;17.15;;;10.10;;
70169;SDS011;57543;45.442;9.212;2024-03-23T10:11:33;15.82;;;9.02;;
70169;SDS011;57543;45.442;9.212;2024-03-23T10:14:36;19.90;;;9.73;;
70169;SDS011;57543;45.442;9.212;2024-03-23T10:17:39;16.42;;;9.43;;
70169;SDS011;57543;45.442;9.212;2024-03-23T10:20:43;17.40;;;8.90;;
70169;SDS011;57543;45.442;9.212;2024-03-23T10:23:48;18.48;;;9.55;;
70169;SDS011;57543;45.442;9.212;2024-03-23T10:26:56;16.77;;;9.30;;
70169;SDS011;57543;45.442;9.212;2024-03-23T10:30:07;17.47;;;9.13;;
70169;SDS011;57543;45.442;9.212;2024-03-23T10:33:20;18.40;;;9.10;;
70169;SDS011;57543;45.442;9.212;2024-03-23T10:36:24;16.33;;;9.07;;
70169;SDS011;57543;45.442;9.212;2024-03-23T10:39:34;17.23;;;10.27;;
70169;SDS011;57543;45.442;9.212;2024-03-23T10:42:39;18.13;;;9.95;;
70169;SDS011;57543;45.442;9.212;2024-03-23T10:45:43;16.73;;;9.33;;
70169;SDS011;57543;45.442;9.212;2024-03-23T10:48:47;18.45;;;8.95;;
70169;SDS011;57543;45.442;9.212;2024-03-23T10:51:52;17.50;;;10.18;;
70169;SDS011;57543;45.442;9.212;2024-03-23T10:54:56;17.63;;;10.18;;
70169;SDS011;57543;45.442;9.212;2024-03-23T10:58:01;20.10;;;9.45;;
70169;SDS011;57543;45.442;9.212;2024-03-23T11:01:05;17.40;;;9.97;;
70169;SDS011;57543;45.442;9.212;2024-03-23T11:04:09;19.70;;;10.70;;
70169;SDS011;57543;45.442;9.212;2024-03-23T11:07:32;25.23;;;11.85;;
70169;SDS011;57543;45.442;9.212;2024-03-23T11:10:36;16.35;;;9.52;;
70169;SDS011;57543;45.442;9.212;2024-03-23T11:13:40;18.25;;;10.55;;
70169;SDS011;57543;45.442;9.212;2024-03-23T11:16:44;19.93;;;11.57;;
70169;SDS011;57543;45.442;9.212;2024-03-23T11:20:00;20.40;;;10.98;;
70169;SDS011;57543;45.442;9.212;2024-03-23T11:23:06;20.88;;;10.88;;
70169;SDS011;57543;45.442;9.212;2024-03-23T11:26:10;19.08;;;10.88;;
70169;SDS011;57543;45.442;9.212;2024-03-23T11:29:14;19.27;;;11.02;;
70169;SDS011;57543;45.442;9.212;2024-03-23T11:32:20;18.43;;;9.70;;
70169;SDS011;57543;45.442;9.212;2024-03-23T11:35:34;14.85;;;8.77;;
70169;SDS011;57543;45.442;9.212;2024-03-23T11:38:40;16.92;;;9.80;;
70169;SDS011;57543;45.442;9.212;2024-03-23T11:41:51;14.80;;;8.75;;
70169;SDS011;57543;45.442;9.212;2024-03-23T11:44:55;15.60;;;8.63;;
70169;SDS011;57543;45.442;9.212;2024-03-23T11:48:02;18.73;;;9.07;;
70169;SDS011;57543;45.442;9.212;2024-03-23T11:51:07;16.77;;;9.50;;
70169;SDS011;57543;45.442;9.212;2024-03-23T11:54:11;15.35;;;9.20;;
70169;SDS011;57543;45.442;9.212;2024-03-23T11:57:14;15.75;;;8.30;;
70169;SDS011;57543;45.442;9.212;2024-03-23T12:00:21;15.02;;;7.88;;
70169;SDS011;57543;45.442;9.212;2024-03-23T12:03:25;15.30;;;7.67;;
70169;SDS011;57543;45.442;9.212;2024-03-23T12:06:30;15.70;;;7.20;;
70169;SDS011;57543;45.442;9.212;2024-03-23T12:09:34;13.15;;;7.18;;
70169;SDS011;57543;45.442;9.212;2024-03-23T12:12:37;13.98;;;6.18;;
70169;SDS011;57543;45.442;9.212;2024-03-23T12:15:41;12.85;;;6.57;;
70169;SDS011;57543;45.442;9.212;2024-03-23T12:18:44;13.20;;;6.40;;
70169;SDS011;57543;45.442;9.212;2024-03-23T12:21:50;16.42;;;6.40;;
70169;SDS011;57543;45.442;9.212;2024-03-23T12:24:54;13.35;;;5.80;;
70169;SDS011;57543;45.442;9.212;2024-03-23T12:28:01;14.02;;;6.25;;
70169;SDS011;57543;45.442;9.212;2024-03-23T12:31:05;16.23;;;6.85;;
70169;SDS011;57543;45.442;9.212;2024-03-23T12:34:09;15.63;;;6.70;;
70169;SDS011;57543;45.442;9.212;2024-03-23T12:37:13;13.40;;;6.05;;
70169;SDS011;57543;45.442;9.212;2024-03-23T12:40:17;15.95;;;6.22;;
70169;SDS011;57543;45.442;9.212;2024-03-23T12:43:20;10.80;;;5.40;;
70169;SDS011;57543;45.442;9.212;2024-03-23T12:46:24;12.57;;;5.95;;
70169;SDS011;57543;45.442;9.212;2024-03-23T12:49:27;13.87;;;4.80;;
70169;SDS011;57543;45.442;9.212;2024-03-23T12:52:32;12.10;;;4.90;;
70169;SDS011;57543;45.442;9.212;2024-03-23T12:55:36;14.40;;;5.88;;
70169;SDS011;57543;45.442;9.212;2024-03-23T12:58:40;13.63;;;6.43;;
70169;SDS011;57543;45.442;9.212;2024-03-23T13:01:44;12.95;;;5.80;;
70169;SDS011;57543;45.442;9.212;2024-03-23T13:04:49;12.10;;;5.27;;
70169;SDS011;57543;45.442;9.212;2024-03-23T13:07:53;10.90;;;5.15;;
70169;SDS011;57543;45.442;9.212;2024-03-23T13:10:57;12.50;;;5.05;;
70169;SDS011;57543;45.442;9.212;2024-03-23T13:14:00;11.20;;;6.03;;
70169;SDS011;57543;45.442;9.212;2024-03-23T13:17:04;12.80;;;5.85;;
70169;SDS011;57543;45.442;9.212;2024-03-23T13:20:08;10.73;;;4.87;;
70169;SDS011;57543;45.442;9.212;2024-03-23T13:23:16;10.90;;;5.03;;
70169;SDS011;57543;45.442;9.212;2024-03-23T13:26:20;9.82;;;5.50;;
70169;SDS011;57543;45.442;9.212;2024-03-23T13:29:24;10.02;;;5.25;;
70169;SDS011;57543;45.442;9.212;2024-03-23T13:32:27;10.13;;;4.70;;
70169;SDS011;57543;45.442;9.212;2024-03-23T13:35:32;11.53;;;5.60;;
70169;SDS011;57543;45.442;9.212;2024-03-23T13:38:35;10.85;;;5.65;;
70169;SDS011;57543;45.442;9.212;2024-03-23T13:41:43;9.48;;;4.45;;
70169;SDS011;57543;45.442;9.212;2024-03-23T13:44:48;9.40;;;4.40;;
70169;SDS011;57543;45.442;9.212;2024-03-23T13:47:53;12.75;;;4.70;;
70169;SDS011;57543;45.442;9.212;2024-03-23T13:51:00;10.83;;;4.53;;
70169;SDS011;57543;45.442;9.212;2024-03-23T13:54:08;9.20;;;4.35;;
70169;SDS011;57543;45.442;9.212;2024-03-23T13:57:11;11.25;;;4.78;;
70169;SDS011;57543;45.442;9.212;2024-03-23T14:00:15;8.95;;;4.93;;
70169;SDS011;57543;45.442;9.212;2024-03-23T14:03:19;9.25;;;4.53;;
70169;SDS011;57543;45.442;9.212;2024-03-23T14:06:23;10.83;;;4.30;;
70169;SDS011;57543;45.442;9.212;2024-03-23T14:09:27;9.55;;;3.88;;
70169;SDS011;57543;45.442;9.212;2024-03-23T14:12:32;9.90;;;4.38;;
70169;SDS011;57543;45.442;9.212;2024-03-23T14:15:36;12.05;;;4.57;;
70169;SDS011;57543;45.442;9.212;2024-03-23T14:18:40;9.10;;;4.38;;
70169;SDS011;57543;45.442;9.212;2024-03-23T14:21:44;11.47;;;4.17;;
70169;SDS011;57543;45.442;9.212;2024-03-23T14:24:48;9.45;;;4.53;;
70169;SDS011;57543;45.442;9.212;2024-03-23T14:27:51;9.40;;;4.20;;
70169;SDS011;57543;45.442;9.212;2024-03-23T14:30:55;12.63;;;4.22;;
70169;SDS011;57543;45.442;9.212;2024-03-23T14:33:59;8.10;;;4.05;;
70169;SDS011;57543;45.442;9.212;2024-03-23T14:37:02;8.57;;;3.63;;
70169;SDS011;57543;45.442;9.212;2024-03-23T14:40:06;13.68;;;4.65;;
70169;SDS011;57543;45.442;9.212;2024-03-23T14:43:11;8.80;;;4.05;;
70169;SDS011;57543;45.442;9.212;2024-03-23T14:46:15;11.15;;;3.92;;
70169;SDS011;57543;45.442;9.212;2024-03-23T14:49:19;10.38;;;3.97;;
70169;SDS011;57543;45.442;9.212;2024-03-23T14:52:23;9.93;;;4.03;;
70169;SDS011;57543;45.442;9.212;2024-03-23T14:55:27;9.98;;;4.00;;
70169;SDS011;57543;45.442;9.212;2024-03-23T14:58:31;9.60;;;4.60;;
70169;SDS011;57543;45.442;9.212;2024-03-23T15:01:35;12.60;;;4.35;;
70169;SDS011;57543;45.442;9.212;2024-03-23T15:04:38;11.00;;;4.18;;
70169;SDS011;57543;45.442;9.212;2024-03-23T15:07:44;10.80;;;4.70;;
70169;SDS011;57543;45.442;9.212;2024-03-23T15:10:48;11.35;;;4.18;;
70169;SDS011;57543;45.442;9.212;2024-03-23T15:13:52;9.80;;;4.03;;
70169;SDS011;57543;45.442;9.212;2024-03-23T15:16:56;8.05;;;4.20;;
70169;SDS011;57543;45.442;9.212;2024-03-23T15:19:59;7.97;;;3.90;;
70169;SDS011;57543;45.442;9.212;2024-03-23T15:23:02;10.13;;;4.57;;
70169;SDS011;57543;45.442;9.212;2024-03-23T15:26:06;11.77;;;4.85;;
70169;SDS011;57543;45.442;9.212;2024-03-23T15:29:10;9.93;;;5.07;;
70169;SDS011;57543;45.442;9.212;2024-03-23T15:32:14;13.88;;;5.78;;
70169;SDS011;57543;45.442;9.212;2024-03-23T15:35:20;18.45;;;8.05;;
70169;SDS011;57543;45.442;9.212;2024-03-23T15:38:26;17.43;;;8.73;;
70169;SDS011;57543;45.442;9.212;2024-03-23T15:41:30;18.42;;;10.55;;
70169;SDS011;57543;45.442;9.212;2024-03-23T15:44:34;24.88;;;12.00;;
70169;SDS011;57543;45.442;9.212;2024-03-23T15:47:38;25.60;;;12.75;;
70169;SDS011;57543;45.442;9.212;2024-03-23T15:50:49;25.48;;;13.52;;
70169;SDS011;57543;45.442;9.212;2024-03-23T15:53:55;27.43;;;14.10;;
70169;SDS011;57543;45.442;9.212;2024-03-23T15:57:00;29.45;;;14.23;;
70169;SDS011;57543;45.442;9.212;2024-03-23T16:00:03;24.20;;;13.13;;
70169;SDS011;57543;45.442;9.212;2024-03-23T16:03:15;24.73;;;12.52;;
70169;SDS011;57543;45.442;9.212;2024-03-23T16:06:19;26.15;;;13.10;;
70169;SDS011;57543;45.442;9.212;2024-03-23T16:09:24;25.43;;;13.63;;
70169;SDS011;57543;45.442;9.212;2024-03-23T16:12:27;23.60;;;12.00;;
70169;SDS011;57543;45.442;9.212;2024-03-23T16:15:31;21.08;;;10.02;;
70169;SDS011;57543;45.442;9.212;2024-03-23T16:18:35;22.27;;;10.70;;
70169;SDS011;57543;45.442;9.212;2024-03-23T16:21:40;22.02;;;10.43;;
70169;SDS011;57543;45.442;9.212;2024-03-23T16:24:44;17.53;;;7.73;;
70169;SDS011;57543;45.442;9.212;2024-03-23T16:27:48;16.25;;;8.07;;
70169;SDS011;57543;45.442;9.212;2024-03-23T16:31:01;18.92;;;8.23;;
70169;SDS011;57543;45.442;9.212;2024-03-23T16:34:05;15.73;;;8.60;;
70169;SDS011;57543;45.442;9.212;2024-03-23T16:37:09;14.20;;;6.85;;
70169;SDS011;57543;45.442;9.212;2024-03-23T16:40:13;14.50;;;7.93;;
70169;SDS011;57543;45.442;9.212;2024-03-23T16:43:17;19.70;;;7.93;;
70169;SDS011;57543;45.442;9.212;2024-03-23T16:46:22;15.57;;;7.93;;
70169;SDS011;57543;45.442;9.212;2024-03-23T16:49:26;17.35;;;7.82;;
70169;SDS011;57543;45.442;9.212;2024-03-23T16:52:30;15.18;;;7.53;;
70169;SDS011;57543;45.442;9.212;2024-03-23T16:55:34;17.00;;;7.83;;
70169;SDS011;57543;45.442;9.212;2024-03-23T16:58:39;15.30;;;8.40;;
70169;SDS011;57543;45.442;9.212;2024-03-23T17:01:43;19.65;;;9.68;;
70169;SDS011;57543;45.442;9.212;2024-03-23T17:04:47;18.95;;;8.93;;
70169;SDS011;57543;45.442;9.212;2024-03-23T17:07:51;17.33;;;8.77;;
70169;SDS011;57543;45.442;9.212;2024-03-23T17:10:58;16.27;;;9.00;;
70169;SDS011;57543;45.442;9.212;2024-03-23T17:14:05;18.98;;;9.10;;
70169;SDS011;57543;45.442;9.212;2024-03-23T17:17:09;17.08;;;9.05;;
70169;SDS011;57543;45.442;9.212;2024-03-23T17:20:13;13.23;;;8.07;;
70169;SDS011;57543;45.442;9.212;2024-03-23T17:23:26;14.32;;;7.85;;
70169;SDS011;57543;45.442;9.212;2024-03-23T17:26:31;17.73;;;9.00;;
70169;SDS011;57543;45.442;9.212;2024-03-23T17:29:35;17.48;;;8.48;;
70169;SDS011;57543;45.442;9.212;2024-03-23T17:32:39;15.88;;;7.57;;
70169;SDS011;57543;45.442;9.212;2024-03-23T17:35:44;16.75;;;7.90;;
70169;SDS011;57543;45.442;9.212;2024-03-23T17:38:50;20.20;;;9.95;;
70169;SDS011;57543;45.442;9.212;2024-03-23T17:41:54;15.87;;;8.47;;
70169;SDS011;57543;45.442;9.212;2024-03-23T17:44:57;15.77;;;8.23;;
70169;SDS011;57543;45.442;9.212;2024-03-23T17:48:01;17.10;;;8.57;;
70169;SDS011;57543;45.442;9.212;2024-03-23T17:51:05;13.32;;;7.70;;
70169;SDS011;57543;45.442;9.212;2024-03-23T17:54:08;13.77;;;7.20;;
70169;SDS011;57543;45.442;9.212;2024-03-23T17:57:12;16.53;;;8.20;;
70169;SDS011;57543;45.442;9.212;2024-03-23T18:00:16;17.48;;;8.55;;
70169;SDS011;57543;45.442;9.212;2024-03-23T18:03:20;16.00;;;8.45;;
70169;SDS011;57543;45.442;9.212;2024-03-23T18:06:23;16.38;;;8.77;;
70169;SDS011;57543;45.442;9.212;2024-03-23T18:09:27;13.60;;;7.45;;
70169;SDS011;57543;45.442;9.212;2024-03-23T18:12:30;17.60;;;8.53;;
70169;SDS011;57543;45.442;9.212;2024-03-23T18:15:36;16.60;;;8.30;;
70169;SDS011;57543;45.442;9.212;2024-03-23T18:18:39;15.60;;;7.95;;
70169;SDS011;57543;45.442;9.212;2024-03-23T18:21:43;13.55;;;6.90;;
70169;SDS011;57543;45.442;9.212;2024-03-23T18:24:47;13.88;;;7.68;;
70169;SDS011;57543;45.442;9.212;2024-03-23T18:27:50;13.80;;;6.80;;
70169;SDS011;57543;45.442;9.212;2024-03-23T18:30:56;12.95;;;6.85;;
70169;SDS011;57543;45.442;9.212;2024-03-23T18:34:00;13.75;;;7.45;;
70169;SDS011;57543;45.442;9.212;2024-03-23T18:37:04;11.98;;;6.43;;
70169;SDS011;57543;45.442;9.212;2024-03-23T18:40:09;13.25;;;6.10;;
70169;SDS011;57543;45.442;9.212;2024-03-23T18:43:13;10.47;;;5.90;;
70169;SDS011;57543;45.442;9.212;2024-03-23T18:46:17;12.00;;;6.22;;
70169;SDS011;57543;45.442;9.212;2024-03-23T18:49:21;13.48;;;6.45;;
70169;SDS011;57543;45.442;9.212;2024-03-23T18:52:24;13.90;;;5.93;;
70169;SDS011;57543;45.442;9.212;2024-03-23T18:55:28;10.90;;;5.80;;
70169;SDS011;57543;45.442;9.212;2024-03-23T18:58:32;12.20;;;6.00;;
70169;SDS011;57543;45.442;9.212;2024-03-23T19:01:35;9.88;;;5.70;;